sensor_id;sensor_type;location;lat;lon;timestamp;pressure;altitude;pressure_sealevel;temperature;humidity
46087;BME280;31824;49.648;8.640;2023-07-30T00:00:15;99801.81;;;20.24;100.00
46087;BME280;31824;49.648;8.640;2023-07-30T00:03:18;99806.44;;;20.28;100.00
46087;BME280;31824;49.648;8.640;2023-07-30T00:06:20;99802.78;;;20.26;100.00
46087;BME280;31824;49.648;8.640;2023-07-30T00:09:22;99800.59;;;19.98;100.00
46087;BME280;31824;49.648;8.640;2023-07-30T00:12:23;99800.59;;;19.98;100.00
46087;BME280;31824;49.648;8.640;2023-07-30T00:15:25;99817.56;;;19.82;100.00
46087;BME280;31824;49.648;8.640;2023-07-30T00:18:28;99827.13;;;19.78;100.00
46087;BME280;31824;49.648;8.640;2023-07-30T00:21:30;99828.44;;;19.68;100.00
46087;BME280;31824;49.648;8.640;2023-07-30T00:24:32;99834.84;;;19.72;100.00
46087;BME280;31824;49.648;8.640;2023-07-30T00:27:34;99831.78;;;19.64;100.00
46087;BME280;31824;49.648;8.640;2023-07-30T00:30:36;99840.44;;;19.60;100.00
46087;BME280;31824;49.648;8.640;2023-07-30T00:33:39;99845.78;;;19.60;100.00
46087;BME280;31824;49.648;8.640;2023-07-30T00:36:41;99839.97;;;19.69;100.00
46087;BME280;31824;49.648;8.640;2023-07-30T00:39:43;99844.34;;;19.67;100.00
46087;BME280;31824;49.648;8.640;2023-07-30T00:42:44;99849.28;;;19.59;100.00
46087;BME280;31824;49.648;8.640;2023-07-30T00:45:47;99861.44;;;19.54;100.00
46087;BME280;31824;49.648;8.640;2023-07-30T00:48:50;99862.13;;;19.50;100.00
46087;BME280;31824;49.648;8.640;2023-07-30T00:51:52;99855.81;;;19.48;100.00
46087;BME280;31824;49.648;8.640;2023-07-30T00:54:58;99857.31;;;19.43;100.00
46087;BME280;31824;49.648;8.640;2023-07-30T00:58:01;99855.56;;;19.43;100.00
46087;BME280;31824;49.648;8.640;2023-07-30T01:01:03;99873.53;;;19.47;100.00
46087;BME280;31824;49.648;8.640;2023-07-30T01:04:07;99863.88;;;19.49;100.00
46087;BME280;31824;49.648;8.640;2023-07-30T01:07:10;99868.53;;;19.53;100.00
46087;BME280;31824;49.648;8.640;2023-07-30T01:10:12;99861.56;;;19.39;100.00
46087;BME280;31824;49.648;8.640;2023-07-30T01:13:15;99872.16;;;19.37;100.00
46087;BME280;31824;49.648;8.640;2023-07-30T01:16:18;99872.16;;;19.37;100.00
46087;BME280;31824;49.648;8.640;2023-07-30T01:19:21;99862.56;;;19.41;100.00
46087;BME280;31824;49.648;8.640;2023-07-30T01:22:25;99862.66;;;19.43;100.00
46087;BME280;31824;49.648;8.640;2023-07-30T01:25:28;99868.66;;;19.38;100.00
46087;BME280;31824;49.648;8.640;2023-07-30T01:28:36;99873.09;;;19.38;100.00
46087;BME280;31824;49.648;8.640;2023-07-30T01:31:40;99874.00;;;19.38;100.00
46087;BME280;31824;49.648;8.640;2023-07-30T01:34:44;99874.97;;;19.40;100.00
46087;BME280;31824;49.648;8.640;2023-07-30T01:38:08;99881.75;;;19.34;100.00
46087;BME280;31824;49.648;8.640;2023-07-30T01:41:10;99880.88;;;19.35;100.00
46087;BME280;31824;49.648;8.640;2023-07-30T01:44:12;99878.50;;;19.39;100.00
46087;BME280;31824;49.648;8.640;2023-07-30T01:47:14;99879.63;;;19.45;100.00
46087;BME280;31824;49.648;8.640;2023-07-30T01:50:16;99895.59;;;19.45;100.00
46087;BME280;31824;49.648;8.640;2023-07-30T01:53:19;99890.19;;;19.43;100.00
46087;BME280;31824;49.648;8.640;2023-07-30T01:56:20;99889.22;;;19.41;100.00
46087;BME280;31824;49.648;8.640;2023-07-30T01:59:22;99892.63;;;19.38;100.00
46087;BME280;31824;49.648;8.640;2023-07-30T02:02:24;99890.16;;;19.25;100.00
46087;BME280;31824;49.648;8.640;2023-07-30T02:05:26;99890.56;;;19.33;100.00
46087;BME280;31824;49.648;8.640;2023-07-30T02:08:29;99897.63;;;19.32;100.00
46087;BME280;31824;49.648;8.640;2023-07-30T02:11:31;99895.16;;;19.35;100.00
46087;BME280;31824;49.648;8.640;2023-07-30T02:14:34;99904.78;;;19.33;100.00
46087;BME280;31824;49.648;8.640;2023-07-30T02:17:36;99900.81;;;19.25;100.00
46087;BME280;31824;49.648;8.640;2023-07-30T02:20:38;99905.31;;;19.26;100.00
46087;BME280;31824;49.648;8.640;2023-07-30T02:23:41;99902.06;;;19.32;100.00
46087;BME280;31824;49.648;8.640;2023-07-30T02:26:42;99898.97;;;19.24;100.00
46087;BME280;31824;49.648;8.640;2023-07-30T02:29:44;99902.38;;;19.21;100.00
46087;BME280;31824;49.648;8.640;2023-07-30T02:32:46;99895.06;;;19.17;100.00
46087;BME280;31824;49.648;8.640;2023-07-30T02:35:49;99895.00;;;19.16;100.00
46087;BME280;31824;49.648;8.640;2023-07-30T02:38:52;99902.75;;;19.11;100.00
46087;BME280;31824;49.648;8.640;2023-07-30T02:41:54;99895.66;;;19.12;100.00
46087;BME280;31824;49.648;8.640;2023-07-30T02:44:55;99895.00;;;19.16;100.00
46087;BME280;31824;49.648;8.640;2023-07-30T02:47:58;99893.75;;;19.09;100.00
46087;BME280;31824;49.648;8.640;2023-07-30T02:51:00;99904.00;;;19.01;100.00
46087;BME280;31824;49.648;8.640;2023-07-30T02:54:05;99907.56;;;19.02;100.00
46087;BME280;31824;49.648;8.640;2023-07-30T02:57:07;99907.56;;;19.02;100.00
46087;BME280;31824;49.648;8.640;2023-07-30T03:00:09;99899.75;;;19.05;100.00
46087;BME280;31824;49.648;8.640;2023-07-30T03:03:11;99903.41;;;19.07;100.00
46087;BME280;31824;49.648;8.640;2023-07-30T03:06:13;99913.56;;;18.98;100.00
46087;BME280;31824;49.648;8.640;2023-07-30T03:09:17;99911.72;;;18.97;100.00
46087;BME280;31824;49.648;8.640;2023-07-30T03:12:19;99915.22;;;18.96;100.00
46087;BME280;31824;49.648;8.640;2023-07-30T03:15:20;99923.88;;;18.92;100.00
46087;BME280;31824;49.648;8.640;2023-07-30T03:18:22;99927.16;;;18.87;100.00
46087;BME280;31824;49.648;8.640;2023-07-30T03:21:24;99928.53;;;18.96;100.00
46087;BME280;31824;49.648;8.640;2023-07-30T03:24:27;99924.72;;;18.91;100.00
46087;BME280;31824;49.648;8.640;2023-07-30T03:27:29;99924.13;;;18.96;100.00
46087;BME280;31824;49.648;8.640;2023-07-30T03:30:31;99920.16;;;18.88;100.00
46087;BME280;31824;49.648;8.640;2023-07-30T03:33:33;99910.41;;;18.88;100.00
46087;BME280;31824;49.648;8.640;2023-07-30T03:36:35;99902.56;;;18.92;100.00
46087;BME280;31824;49.648;8.640;2023-07-30T03:39:38;99906.41;;;18.97;100.00
46087;BME280;31824;49.648;8.640;2023-07-30T03:42:40;99904.69;;;18.97;100.00
46087;BME280;31824;49.648;8.640;2023-07-30T03:45:42;99914.38;;;18.97;100.00
46087;BME280;31824;49.648;8.640;2023-07-30T03:48:44;99920.81;;;19.00;100.00
46087;BME280;31824;49.648;8.640;2023-07-30T03:51:45;99928.13;;;19.04;100.00
46087;BME280;31824;49.648;8.640;2023-07-30T03:54:48;99933.75;;;19.11;100.00
46087;BME280;31824;49.648;8.640;2023-07-30T03:57:50;99920.72;;;19.15;100.00
46087;BME280;31824;49.648;8.640;2023-07-30T04:00:52;99929.53;;;19.14;100.00
46087;BME280;31824;49.648;8.640;2023-07-30T04:03:54;99930.88;;;19.06;100.00
46087;BME280;31824;49.648;8.640;2023-07-30T04:06:56;99936.34;;;19.09;100.00
46087;BME280;31824;49.648;8.640;2023-07-30T04:09:59;99931.22;;;19.12;100.00
46087;BME280;31824;49.648;8.640;2023-07-30T04:13:01;99938.34;;;19.13;100.00
46087;BME280;31824;49.648;8.640;2023-07-30T04:16:03;99930.88;;;19.06;100.00
46087;BME280;31824;49.648;8.640;2023-07-30T04:19:05;99930.94;;;19.08;100.00
46087;BME280;31824;49.648;8.640;2023-07-30T04:22:06;99941.75;;;19.11;100.00
46087;BME280;31824;49.648;8.640;2023-07-30T04:25:10;99947.84;;;19.08;100.00
46087;BME280;31824;49.648;8.640;2023-07-30T04:28:14;99955.25;;;19.14;100.00
46087;BME280;31824;49.648;8.640;2023-07-30T04:31:17;99955.34;;;19.15;100.00
46087;BME280;31824;49.648;8.640;2023-07-30T04:34:19;99958.06;;;19.17;100.00
46087;BME280;31824;49.648;8.640;2023-07-30T04:37:20;99961.63;;;19.17;100.00
46087;BME280;31824;49.648;8.640;2023-07-30T04:40:24;99962.66;;;19.19;100.00
46087;BME280;31824;49.648;8.640;2023-07-30T04:43:26;99966.28;;;19.21;100.00
46087;BME280;31824;49.648;8.640;2023-07-30T04:46:31;99965.31;;;19.19;100.00
46087;BME280;31824;49.648;8.640;2023-07-30T04:49:35;99971.47;;;19.18;100.00
46087;BME280;31824;49.648;8.640;2023-07-30T04:52:38;99975.88;;;19.18;100.00
46087;BME280;31824;49.648;8.640;2023-07-30T04:55:41;99971.47;;;19.18;100.00
46087;BME280;31824;49.648;8.640;2023-07-30T04:58:43;99964.56;;;19.22;100.00
46087;BME280;31824;49.648;8.640;2023-07-30T05:01:45;99968.81;;;19.18;100.00
46087;BME280;31824;49.648;8.640;2023-07-30T05:04:46;99963.47;;;19.18;100.00
46087;BME280;31824;49.648;8.640;2023-07-30T05:07:48;99968.81;;;19.18;100.00
46087;BME280;31824;49.648;8.640;2023-07-30T05:10:52;99973.38;;;19.21;100.00
46087;BME280;31824;49.648;8.640;2023-07-30T05:13:53;99969.16;;;19.25;100.00
46087;BME280;31824;49.648;8.640;2023-07-30T05:16:55;99962.88;;;19.24;100.00
46087;BME280;31824;49.648;8.640;2023-07-30T05:19:57;99955.84;;;19.25;100.00
46087;BME280;31824;49.648;8.640;2023-07-30T05:22:58;99939.84;;;19.25;100.00
46087;BME280;31824;49.648;8.640;2023-07-30T05:26:01;99924.69;;;19.23;100.00
46087;BME280;31824;49.648;8.640;2023-07-30T05:29:03;99919.03;;;19.17;100.00
46087;BME280;31824;49.648;8.640;2023-07-30T05:32:06;99917.91;;;19.12;100.00
46087;BME280;31824;49.648;8.640;2023-07-30T05:35:08;99929.09;;;19.06;100.00
46087;BME280;31824;49.648;8.640;2023-07-30T05:38:10;99932.94;;;19.12;100.00
46087;BME280;31824;49.648;8.640;2023-07-30T05:41:13;99936.53;;;19.12;100.00
46087;BME280;31824;49.648;8.640;2023-07-30T05:44:15;99939.28;;;19.14;100.00
46087;BME280;31824;49.648;8.640;2023-07-30T05:47:16;99940.69;;;19.23;100.00
46087;BME280;31824;49.648;8.640;2023-07-30T05:50:18;99947.47;;;19.35;100.00
46087;BME280;31824;49.648;8.640;2023-07-30T05:53:20;99945.31;;;19.44;100.00
46087;BME280;31824;49.648;8.640;2023-07-30T05:56:23;99942.97;;;19.50;100.00
46087;BME280;31824;49.648;8.640;2023-07-30T05:59:25;99950.38;;;19.56;100.00
46087;BME280;31824;49.648;8.640;2023-07-30T06:02:26;99953.13;;;19.57;100.00
46087;BME280;31824;49.648;8.640;2023-07-30T06:05:28;99953.94;;;19.56;100.00
46087;BME280;31824;49.648;8.640;2023-07-30T06:08:30;99956.59;;;19.56;100.00
46087;BME280;31824;49.648;8.640;2023-07-30T06:11:33;99957.44;;;19.55;100.00
46087;BME280;31824;49.648;8.640;2023-07-30T06:14:35;99953.03;;;19.56;100.00
46087;BME280;31824;49.648;8.640;2023-07-30T06:17:36;99954.03;;;19.58;100.00
46087;BME280;31824;49.648;8.640;2023-07-30T06:20:38;99948.13;;;19.64;100.00
46087;BME280;31824;49.648;8.640;2023-07-30T06:23:40;99961.97;;;19.74;100.00
46087;BME280;31824;49.648;8.640;2023-07-30T06:26:43;99964.19;;;19.82;100.00
46087;BME280;31824;49.648;8.640;2023-07-30T06:29:45;99957.34;;;19.87;100.00
46087;BME280;31824;49.648;8.640;2023-07-30T06:32:47;99963.78;;;19.92;100.00
46087;BME280;31824;49.648;8.640;2023-07-30T06:35:48;99965.22;;;20.02;100.00
46087;BME280;31824;49.648;8.640;2023-07-30T06:38:50;99966.41;;;20.08;100.00
46087;BME280;31824;49.648;8.640;2023-07-30T06:41:53;99967.72;;;20.17;100.00
46087;BME280;31824;49.648;8.640;2023-07-30T06:44:55;99965.44;;;20.24;100.00
46087;BME280;31824;49.648;8.640;2023-07-30T06:47:57;99968.34;;;20.29;100.00
46087;BME280;31824;49.648;8.640;2023-07-30T06:50:59;99975.78;;;20.36;100.00
46087;BME280;31824;49.648;8.640;2023-07-30T06:54:01;99969.84;;;20.42;100.00
46087;BME280;31824;49.648;8.640;2023-07-30T06:57:05;99979.53;;;20.40;100.00
46087;BME280;31824;49.648;8.640;2023-07-30T07:00:07;99952.00;;;20.23;100.00
46087;BME280;31824;49.648;8.640;2023-07-30T07:03:09;99963.31;;;20.17;100.00
46087;BME280;31824;49.648;8.640;2023-07-30T07:06:11;99963.31;;;20.17;100.00
46087;BME280;31824;49.648;8.640;2023-07-30T07:09:13;99956.28;;;20.19;100.00
46087;BME280;31824;49.648;8.640;2023-07-30T07:12:16;99960.78;;;20.20;100.00
46087;BME280;31824;49.648;8.640;2023-07-30T07:15:18;99978.00;;;20.27;100.00
46087;BME280;31824;49.648;8.640;2023-07-30T07:18:19;99973.06;;;20.17;100.00
46087;BME280;31824;49.648;8.640;2023-07-30T07:21:21;99984.09;;;20.24;100.00
46087;BME280;31824;49.648;8.640;2023-07-30T07:24:23;99986.75;;;20.24;100.00
46087;BME280;31824;49.648;8.640;2023-07-30T07:27:26;99978.06;;;20.29;100.00
46087;BME280;31824;49.648;8.640;2023-07-30T07:30:28;99982.22;;;20.40;100.00
46087;BME280;31824;49.648;8.640;2023-07-30T07:33:29;99983.03;;;20.39;100.00
46087;BME280;31824;49.648;8.640;2023-07-30T07:36:31;99982.34;;;20.43;100.00
46087;BME280;31824;49.648;8.640;2023-07-30T07:39:33;99982.09;;;20.38;100.00
46087;BME280;31824;49.648;8.640;2023-07-30T07:42:37;99978.41;;;20.35;100.00
46087;BME280;31824;49.648;8.640;2023-07-30T07:45:39;99981.97;;;20.35;100.00
46087;BME280;31824;49.648;8.640;2023-07-30T07:48:42;99971.28;;;20.35;100.00
46087;BME280;31824;49.648;8.640;2023-07-30T07:51:44;99983.19;;;20.42;100.00
46087;BME280;31824;49.648;8.640;2023-07-30T07:54:46;99981.72;;;20.49;100.00
46087;BME280;31824;49.648;8.640;2023-07-30T07:57:49;99980.97;;;20.51;100.00
46087;BME280;31824;49.648;8.640;2023-07-30T08:00:54;99976.53;;;20.52;100.00
46087;BME280;31824;49.648;8.640;2023-07-30T08:03:56;99971.81;;;20.46;100.00
46087;BME280;31824;49.648;8.640;2023-07-30T08:06:57;99971.13;;;20.50;100.00
46087;BME280;31824;49.648;8.640;2023-07-30T08:10:02;99977.75;;;20.58;100.00
46087;BME280;31824;49.648;8.640;2023-07-30T08:13:05;99979.16;;;20.68;100.00
46087;BME280;31824;49.648;8.640;2023-07-30T08:16:07;99969.97;;;20.81;100.00
46087;BME280;31824;49.648;8.640;2023-07-30T08:19:08;99968.19;;;21.00;100.00
46087;BME280;31824;49.648;8.640;2023-07-30T08:22:10;99971.38;;;21.11;100.00
46087;BME280;31824;49.648;8.640;2023-07-30T08:25:12;99968.44;;;21.25;100.00
46087;BME280;31824;49.648;8.640;2023-07-30T08:28:15;99974.88;;;21.29;100.00
46087;BME280;31824;49.648;8.640;2023-07-30T08:31:17;99978.78;;;21.37;100.00
46087;BME280;31824;49.648;8.640;2023-07-30T08:34:21;99967.91;;;21.33;100.00
46087;BME280;31824;49.648;8.640;2023-07-30T08:37:23;99964.47;;;21.35;100.00
46087;BME280;31824;49.648;8.640;2023-07-30T08:40:25;99987.38;;;21.30;100.00
46087;BME280;31824;49.648;8.640;2023-07-30T08:43:29;99977.91;;;21.37;100.00
46087;BME280;31824;49.648;8.640;2023-07-30T08:46:30;99973.56;;;21.40;100.00
46087;BME280;31824;49.648;8.640;2023-07-30T08:49:32;99964.66;;;21.40;100.00
46087;BME280;31824;49.648;8.640;2023-07-30T08:52:35;99975.75;;;21.69;100.00
46087;BME280;31824;49.648;8.640;2023-07-30T08:55:38;99969.28;;;21.83;100.00
46087;BME280;31824;49.648;8.640;2023-07-30T08:58:43;99965.28;;;21.95;100.00
46087;BME280;31824;49.648;8.640;2023-07-30T09:01:46;99986.44;;;22.09;100.00
46087;BME280;31824;49.648;8.640;2023-07-30T09:04:53;99976.22;;;21.99;100.00
46087;BME280;31824;49.648;8.640;2023-07-30T09:07:58;99960.13;;;21.78;100.00
46087;BME280;31824;49.648;8.640;2023-07-30T09:11:06;99968.63;;;21.89;100.00
46087;BME280;31824;49.648;8.640;2023-07-30T09:14:10;99972.34;;;22.14;100.00
46087;BME280;31824;49.648;8.640;2023-07-30T09:17:16;99976.69;;;22.33;100.00
46087;BME280;31824;49.648;8.640;2023-07-30T09:20:18;99996.03;;;22.25;100.00
46087;BME280;31824;49.648;8.640;2023-07-30T09:23:19;99998.63;;;22.03;100.00
46087;BME280;31824;49.648;8.640;2023-07-30T09:26:21;99992.19;;;22.19;100.00
46087;BME280;31824;49.648;8.640;2023-07-30T09:29:25;99983.69;;;22.08;100.00
46087;BME280;31824;49.648;8.640;2023-07-30T09:32:28;100008.00;;;22.13;100.00
46087;BME280;31824;49.648;8.640;2023-07-30T09:35:32;100000.88;;;22.13;100.00
46087;BME280;31824;49.648;8.640;2023-07-30T09:38:38;100021.06;;;22.47;100.00
46087;BME280;31824;49.648;8.640;2023-07-30T09:41:41;100013.03;;;22.47;100.00
46087;BME280;31824;49.648;8.640;2023-07-30T09:44:46;100019.03;;;22.41;100.00
46087;BME280;31824;49.648;8.640;2023-07-30T09:47:49;100021.09;;;22.28;100.00
46087;BME280;31824;49.648;8.640;2023-07-30T09:50:52;100027.81;;;22.18;100.00
46087;BME280;31824;49.648;8.640;2023-07-30T09:53:54;100047.69;;;21.63;100.00
46087;BME280;31824;49.648;8.640;2023-07-30T09:56:56;100051.69;;;20.96;100.00
46087;BME280;31824;49.648;8.640;2023-07-30T09:59:59;100070.28;;;20.76;100.00
46087;BME280;31824;49.648;8.640;2023-07-30T10:03:05;100069.09;;;20.17;100.00
46087;BME280;31824;49.648;8.640;2023-07-30T10:06:10;100083.16;;;20.14;100.00
46087;BME280;31824;49.648;8.640;2023-07-30T10:09:14;100083.44;;;19.53;100.00
46087;BME280;31824;49.648;8.640;2023-07-30T10:12:22;100095.81;;;19.36;100.00
46087;BME280;31824;49.648;8.640;2023-07-30T10:15:26;100093.69;;;19.62;100.00
46087;BME280;31824;49.648;8.640;2023-07-30T10:18:33;100090.09;;;20.11;100.00
46087;BME280;31824;49.648;8.640;2023-07-30T10:21:42;100084.63;;;20.26;100.00
46087;BME280;31824;49.648;8.640;2023-07-30T10:24:55;100089.41;;;20.67;100.00
46087;BME280;31824;49.648;8.640;2023-07-30T10:27:58;100084.38;;;20.91;100.00
46087;BME280;31824;49.648;8.640;2023-07-30T10:31:04;100086.56;;;21.18;100.00
46087;BME280;31824;49.648;8.640;2023-07-30T10:34:07;100084.31;;;21.08;100.00
46087;BME280;31824;49.648;8.640;2023-07-30T10:37:10;100084.06;;;21.03;100.00
46087;BME280;31824;49.648;8.640;2023-07-30T10:40:17;100074.16;;;21.38;100.00
46087;BME280;31824;49.648;8.640;2023-07-30T10:43:19;100076.72;;;21.74;100.00
46087;BME280;31824;49.648;8.640;2023-07-30T10:46:23;100078.50;;;21.94;100.00
46087;BME280;31824;49.648;8.640;2023-07-30T10:49:26;100081.84;;;21.89;100.00
46087;BME280;31824;49.648;8.640;2023-07-30T10:52:28;100091.88;;;21.54;100.00
46087;BME280;31824;49.648;8.640;2023-07-30T10:55:30;100096.94;;;21.50;100.00
46087;BME280;31824;49.648;8.640;2023-07-30T10:58:35;100092.84;;;21.56;100.00
46087;BME280;31824;49.648;8.640;2023-07-30T11:01:38;100107.53;;;21.66;100.00
46087;BME280;31824;49.648;8.640;2023-07-30T11:04:43;100115.44;;;21.63;100.00
46087;BME280;31824;49.648;8.640;2023-07-30T11:07:52;100111.63;;;21.58;100.00
46087;BME280;31824;49.648;8.640;2023-07-30T11:10:53;100111.69;;;21.99;100.00
46087;BME280;31824;49.648;8.640;2023-07-30T11:13:56;100109.81;;;22.37;100.00
46087;BME280;31824;49.648;8.640;2023-07-30T11:16:59;100126.56;;;22.33;100.00
46087;BME280;31824;49.648;8.640;2023-07-30T11:20:02;100132.88;;;22.54;100.00
46087;BME280;31824;49.648;8.640;2023-07-30T11:23:17;100127.38;;;22.11;100.00
46087;BME280;31824;49.648;8.640;2023-07-30T11:26:19;100135.19;;;21.86;100.00
46087;BME280;31824;49.648;8.640;2023-07-30T11:29:21;100155.75;;;21.68;100.00
46087;BME280;31824;49.648;8.640;2023-07-30T11:32:27;100152.22;;;21.69;100.00
46087;BME280;31824;49.648;8.640;2023-07-30T11:35:29;100188.41;;;21.24;100.00
46087;BME280;31824;49.648;8.640;2023-07-30T11:38:31;100176.41;;;21.34;100.00
46087;BME280;31824;49.648;8.640;2023-07-30T11:41:34;100178.38;;;21.38;100.00
46087;BME280;31824;49.648;8.640;2023-07-30T11:44:37;100161.63;;;21.23;100.00
46087;BME280;31824;49.648;8.640;2023-07-30T11:47:41;100168.47;;;21.18;100.00
46087;BME280;31824;49.648;8.640;2023-07-30T11:50:45;100175.66;;;21.19;100.00
46087;BME280;31824;49.648;8.640;2023-07-30T11:53:48;100173.91;;;21.19;100.00
46087;BME280;31824;49.648;8.640;2023-07-30T11:56:54;100182.00;;;21.03;100.00
46087;BME280;31824;49.648;8.640;2023-07-30T11:59:56;100185.03;;;20.92;100.00
46087;BME280;31824;49.648;8.640;2023-07-30T12:03:02;100193.97;;;20.93;100.00
46087;BME280;31824;49.648;8.640;2023-07-30T12:06:04;100201.72;;;21.06;100.00
46087;BME280;31824;49.648;8.640;2023-07-30T12:09:10;100204.34;;;21.05;100.00
46087;BME280;31824;49.648;8.640;2023-07-30T12:12:12;100208.09;;;21.27;100.00
46087;BME280;31824;49.648;8.640;2023-07-30T12:15:14;100210.06;;;21.31;100.00
46087;BME280;31824;49.648;8.640;2023-07-30T12:18:17;100214.91;;;21.38;100.00
46087;BME280;31824;49.648;8.640;2023-07-30T12:21:19;100219.00;;;21.13;100.00
46087;BME280;31824;49.648;8.640;2023-07-30T12:24:21;100207.47;;;21.88;100.00
46087;BME280;31824;49.648;8.640;2023-07-30T12:27:24;100221.34;;;21.79;100.00
46087;BME280;31824;49.648;8.640;2023-07-30T12:30:25;100221.16;;;21.56;100.00
46087;BME280;31824;49.648;8.640;2023-07-30T12:33:30;100216.03;;;21.25;100.00
46087;BME280;31824;49.648;8.640;2023-07-30T12:36:32;100209.25;;;21.68;100.00
46087;BME280;31824;49.648;8.640;2023-07-30T12:39:33;100215.16;;;21.80;100.00
46087;BME280;31824;49.648;8.640;2023-07-30T12:42:35;100217.28;;;21.51;100.00
46087;BME280;31824;49.648;8.640;2023-07-30T12:45:37;100224.44;;;21.33;100.00
46087;BME280;31824;49.648;8.640;2023-07-30T12:48:41;100224.81;;;21.04;100.00
46087;BME280;31824;49.648;8.640;2023-07-30T12:51:43;100226.00;;;20.93;100.00
46087;BME280;31824;49.648;8.640;2023-07-30T12:54:45;100227.47;;;20.86;100.00
46087;BME280;31824;49.648;8.640;2023-07-30T12:57:47;100231.44;;;20.95;100.00
46087;BME280;31824;49.648;8.640;2023-07-30T13:00:49;100240.00;;;21.05;100.00
46087;BME280;31824;49.648;8.640;2023-07-30T13:03:52;100230.75;;;21.35;100.00
46087;BME280;31824;49.648;8.640;2023-07-30T13:06:56;100218.47;;;21.94;100.00
46087;BME280;31824;49.648;8.640;2023-07-30T13:10:06;100217.84;;;21.80;100.00
46087;BME280;31824;49.648;8.640;2023-07-30T13:13:09;100226.47;;;21.38;100.00
46087;BME280;31824;49.648;8.640;2023-07-30T13:16:11;100232.28;;;21.12;100.00
46087;BME280;31824;49.648;8.640;2023-07-30T13:19:14;100231.78;;;20.84;100.00
46087;BME280;31824;49.648;8.640;2023-07-30T13:22:16;100226.78;;;20.57;100.00
46087;BME280;31824;49.648;8.640;2023-07-30T13:25:18;100236.81;;;20.62;100.00
46087;BME280;31824;49.648;8.640;2023-07-30T13:28:20;100249.09;;;20.74;100.00
46087;BME280;31824;49.648;8.640;2023-07-30T13:31:21;100256.91;;;20.88;100.00
46087;BME280;31824;49.648;8.640;2023-07-30T13:34:25;100251.28;;;21.00;100.00
46087;BME280;31824;49.648;8.640;2023-07-30T13:37:27;100249.81;;;21.06;100.00
46087;BME280;31824;49.648;8.640;2023-07-30T13:40:28;100250.38;;;21.17;100.00
46087;BME280;31824;49.648;8.640;2023-07-30T13:43:31;100249.53;;;21.18;100.00
46087;BME280;31824;49.648;8.640;2023-07-30T13:46:32;100252.19;;;21.53;100.00
46087;BME280;31824;49.648;8.640;2023-07-30T13:49:36;100252.44;;;21.41;100.00
46087;BME280;31824;49.648;8.640;2023-07-30T13:52:37;100250.63;;;21.58;100.00
46087;BME280;31824;49.648;8.640;2023-07-30T13:55:39;100259.34;;;21.54;100.00
46087;BME280;31824;49.648;8.640;2023-07-30T13:58:41;100243.91;;;21.30;100.00
46087;BME280;31824;49.648;8.640;2023-07-30T14:01:43;100232.97;;;21.25;100.00
46087;BME280;31824;49.648;8.640;2023-07-30T14:04:46;100248.84;;;21.40;100.00
46087;BME280;31824;49.648;8.640;2023-07-30T14:07:47;100242.91;;;21.46;100.00
46087;BME280;31824;49.648;8.640;2023-07-30T14:10:51;100248.19;;;21.45;100.00
46087;BME280;31824;49.648;8.640;2023-07-30T14:13:53;100240.63;;;21.54;100.00
46087;BME280;31824;49.648;8.640;2023-07-30T14:16:55;100235.97;;;21.68;100.00
46087;BME280;31824;49.648;8.640;2023-07-30T14:19:58;100238.28;;;21.80;100.00
46087;BME280;31824;49.648;8.640;2023-07-30T14:23:00;100236.06;;;21.89;100.00
46087;BME280;31824;49.648;8.640;2023-07-30T14:26:03;100240.00;;;21.78;100.00
46087;BME280;31824;49.648;8.640;2023-07-30T14:29:05;100242.38;;;21.71;100.00
46087;BME280;31824;49.648;8.640;2023-07-30T14:32:07;100227.28;;;21.91;100.00
46087;BME280;31824;49.648;8.640;2023-07-30T14:35:10;100245.47;;;22.18;100.00
46087;BME280;31824;49.648;8.640;2023-07-30T14:38:12;100231.16;;;22.18;100.00
46087;BME280;31824;49.648;8.640;2023-07-30T14:41:14;100236.56;;;22.19;100.00
46087;BME280;31824;49.648;8.640;2023-07-30T14:44:16;100244.69;;;22.21;100.00
46087;BME280;31824;49.648;8.640;2023-07-30T14:47:18;100245.66;;;22.03;100.00
46087;BME280;31824;49.648;8.640;2023-07-30T14:50:21;100243.97;;;22.05;100.00
46087;BME280;31824;49.648;8.640;2023-07-30T14:53:43;100238.88;;;21.92;100.00
46087;BME280;31824;49.648;8.640;2023-07-30T14:56:45;100236.63;;;22.01;100.00
46087;BME280;31824;49.648;8.640;2023-07-30T14:59:47;100244.59;;;22.37;100.00
46087;BME280;31824;49.648;8.640;2023-07-30T15:02:48;100229.84;;;22.88;100.00
46087;BME280;31824;49.648;8.640;2023-07-30T15:05:53;100228.94;;;22.47;100.00
46087;BME280;31824;49.648;8.640;2023-07-30T15:08:54;100228.00;;;22.26;100.00
46087;BME280;31824;49.648;8.640;2023-07-30T15:11:56;100248.44;;;22.64;100.00
46087;BME280;31824;49.648;8.640;2023-07-30T15:14:58;100228.56;;;22.58;100.00
46087;BME280;31824;49.648;8.640;2023-07-30T15:17:59;100228.25;;;22.51;100.00
46087;BME280;31824;49.648;8.640;2023-07-30T15:21:03;100221.75;;;22.46;100.00
46087;BME280;31824;49.648;8.640;2023-07-30T15:24:05;100232.88;;;22.16;100.00
46087;BME280;31824;49.648;8.640;2023-07-30T15:27:07;100231.88;;;22.33;100.00
46087;BME280;31824;49.648;8.640;2023-07-30T15:30:09;100237.09;;;22.50;100.00
46087;BME280;31824;49.648;8.640;2023-07-30T15:33:11;100220.22;;;23.13;100.00
46087;BME280;31824;49.648;8.640;2023-07-30T15:36:14;100224.59;;;23.54;100.00
46087;BME280;31824;49.648;8.640;2023-07-30T15:39:19;100216.84;;;22.97;100.00
46087;BME280;31824;49.648;8.640;2023-07-30T15:42:22;100229.09;;;22.71;100.00
46087;BME280;31824;49.648;8.640;2023-07-30T15:45:24;100227.19;;;22.68;100.00
46087;BME280;31824;49.648;8.640;2023-07-30T15:48:26;100238.06;;;22.71;100.00